Vantage, Washington
Current Conditions -  °F | °C
As of 1:53 PM on Friday 28 Nov 2014 (Local Time) from KELN Reporting Station
Broken Clouds Broken Clouds  
Wind Chill: 52°   Ceiling: 6000
Heat Index: 52°   Visibility: 10mi
Dew Point: 45°   Wind: 6mph
Humidity: 77%   Direction: 300°WNW
Pressure: 29.34"   Gusts: NA
Location:  46.95°N, 119.99°W
Report Text: KELN 282153Z AUTO 30005KT 10SM BKN060 11/07 A2934 RMK AO2 SLP938 T01110072
Loading
Personal Weather Stations






























Interactive Weather Map New forecast layout! Learn more

10-Day Weather Forecast

Advertisements
Track Severe Weather on mobile